KLIT/LIT METAR and TAF weather

Enter ICAO airport designator
Station Type Date Time Source
KLIT METAR 2019/08/23 16:53 UTC NOAA

KLIT 231653Z VRB04KT 10SM FEW022 FEW050 SCT070 BKN250 27/22 A3002 RMK AO2 SLP164 T02720217


Station Type Date Time Source
KLIT Decoded METAR 2019/08/23 16:53 UTC NOAA

Station name not available
Aug 23, 2019 - 12:53 PM EDT / 2019.08.23 1653 UTC
Wind: Variable at 5 MPH (4 KT):0
Visibility: 10 mile(s):0
Sky conditions: mostly cloudy
Temperature: 81.0 F (27.2 C)
Dew Point: 71.1 F (21.7 C)
Relative Humidity: 71%
Pressure (altimeter): 30.02 in. Hg (1016 hPa)
ob: KLIT 231653Z VRB04KT 10SM FEW022 FEW050 SCT070 BKN250 27/22 A3002 RMK AO2 SLP164 T02720217
cycle: 17

Station Type Date Time Source
KLIT TAF 2019/08/23 18:21 UTC NOAA

TAF KLIT 231720Z 2318/2418 08007KT P6SM VCTS SCT025CB BKN090
TEMPO 2319/2322 5SM TS BR BKN025CB
FM240800 05005KT 6SM BR VCSH OVC015 PROB30 2408/2412 4SM TSRA BR OVC007CB

Example: see airport list